createdAt,value
2023-10-04T00:01:39.501Z,13.84
2023-10-04T00:04:07.537Z,13.77
2023-10-04T00:06:35.025Z,13.75
2023-10-04T00:09:05.625Z,13.79
2023-10-04T00:11:32.911Z,13.79
2023-10-04T00:14:01.384Z,13.79
2023-10-04T00:16:28.975Z,13.70
2023-10-04T00:18:56.316Z,13.63
2023-10-04T00:21:23.514Z,13.57
2023-10-04T00:23:50.558Z,13.54
2023-10-04T00:26:17.591Z,13.51
2023-10-04T00:28:44.649Z,13.45
2023-10-04T00:31:12.394Z,13.46
2023-10-04T00:33:39.935Z,13.47
2023-10-04T00:36:07.583Z,13.59
2023-10-04T00:38:35.864Z,13.59
2023-10-04T00:41:08.871Z,13.54
2023-10-04T00:43:53.908Z,13.52
2023-10-04T00:46:24.063Z,13.51
2023-10-04T00:48:51.432Z,13.47
2023-10-04T00:51:24.504Z,13.47
2023-10-04T00:53:53.629Z,13.41
2023-10-04T00:56:21.024Z,13.38
2023-10-04T00:58:48.324Z,13.31
2023-10-04T01:01:18.289Z,13.26
2023-10-04T01:03:47.167Z,13.16
2023-10-04T01:06:16.470Z,13.04
2023-10-04T01:08:44.345Z,12.96
2023-10-04T01:11:11.735Z,12.89
2023-10-04T01:13:40.413Z,12.80
2023-10-04T01:16:10.889Z,12.77
2023-10-04T01:18:40.693Z,12.77
2023-10-04T01:21:07.905Z,12.82
2023-10-04T01:23:35.568Z,12.89
2023-10-04T01:26:02.697Z,12.86
2023-10-04T01:28:29.946Z,12.90
2023-10-04T01:31:01.194Z,12.94
2023-10-04T01:33:30.427Z,12.91
2023-10-04T01:35:58.848Z,12.87
2023-10-04T01:38:27.757Z,12.84
2023-10-04T01:40:57.160Z,12.79
2023-10-04T01:43:28.028Z,12.70
2023-10-04T01:46:00.006Z,12.68
2023-10-04T01:48:37.797Z,12.65
2023-10-04T01:51:06.641Z,12.60
2023-10-04T01:53:36.954Z,12.53
2023-10-04T01:56:07.979Z,12.44
2023-10-04T01:58:35.812Z,12.40
2023-10-04T02:01:03.037Z,12.34
2023-10-04T02:03:31.376Z,12.32
2023-10-04T02:05:58.603Z,12.31
2023-10-04T02:08:26.391Z,12.28
2023-10-04T02:10:56.515Z,12.23
2023-10-04T02:13:23.751Z,12.14
2023-10-04T02:15:53.231Z,12.11
2023-10-04T02:18:23.371Z,12.07
2023-10-04T02:20:52.080Z,12.04
2023-10-04T02:23:20.374Z,12.05
2023-10-04T02:25:49.048Z,12.02
2023-10-04T02:28:25.803Z,12.05
2023-10-04T02:30:56.596Z,12.07
2023-10-04T02:33:25.043Z,12.04
2023-10-04T02:35:52.535Z,12.07
2023-10-04T02:38:28.438Z,12.08
2023-10-04T02:40:56.094Z,12.08
2023-10-04T02:43:27.190Z,12.07
2023-10-04T02:45:58.245Z,12.04
2023-10-04T02:48:25.486Z,11.99
2023-10-04T02:50:53.992Z,11.99
2023-10-04T02:53:26.691Z,12.00
2023-10-04T02:55:59.377Z,11.99
2023-10-04T02:58:29.176Z,11.99
2023-10-04T03:00:56.509Z,12.00
2023-10-04T03:03:26.644Z,12.06
2023-10-04T03:05:56.103Z,12.11
2023-10-04T03:08:25.134Z,12.10
2023-10-04T03:10:55.873Z,12.16
2023-10-04T03:13:27.212Z,12.18
2023-10-04T03:15:55.576Z,12.20
2023-10-04T03:18:27.403Z,12.22
2023-10-04T03:21:00.781Z,12.25
2023-10-04T03:23:37.349Z,12.35
2023-10-04T03:26:05.688Z,12.35
2023-10-04T03:28:35.318Z,12.27
2023-10-04T03:31:05.808Z,12.30
2023-10-04T03:33:39.553Z,12.30
2023-10-04T03:36:07.669Z,12.32
2023-10-04T03:38:35.773Z,12.35
2023-10-04T03:41:05.378Z,12.34
2023-10-04T03:43:33.091Z,12.35
2023-10-04T03:46:08.916Z,12.48
2023-10-04T03:48:39.023Z,12.48
2023-10-04T03:51:06.357Z,12.42
2023-10-04T03:53:33.507Z,12.40
2023-10-04T03:56:05.843Z,12.39
2023-10-04T03:58:37.024Z,12.42
2023-10-04T04:01:05.080Z,12.41
2023-10-04T04:03:34.728Z,12.41
2023-10-04T04:06:02.420Z,12.41
2023-10-04T04:08:30.028Z,12.42
2023-10-04T04:10:57.206Z,12.40
2023-10-04T04:13:25.452Z,12.35
2023-10-04T04:15:53.434Z,12.32
2023-10-04T04:18:25.356Z,12.29
2023-10-04T04:20:55.518Z,12.29
2023-10-04T04:23:22.955Z,12.26
2023-10-04T04:25:51.157Z,12.22
2023-10-04T04:28:20.365Z,12.17
2023-10-04T04:30:48.721Z,12.07
2023-10-04T04:33:18.447Z,11.98
2023-10-04T04:35:48.731Z,11.98
2023-10-04T04:38:26.383Z,11.86
2023-10-04T04:41:05.851Z,11.78
2023-10-04T04:43:38.909Z,11.73
2023-10-04T04:46:10.093Z,11.63
2023-10-04T04:48:40.008Z,11.58
2023-10-04T04:51:12.913Z,11.50
2023-10-04T04:53:41.504Z,11.42
2023-10-04T04:56:16.382Z,11.36
2023-10-04T04:58:45.947Z,11.31
2023-10-04T05:01:13.200Z,11.29
2023-10-04T05:03:44.325Z,11.26
2023-10-04T05:06:16.014Z,11.22
2023-10-04T05:08:43.936Z,11.17
2023-10-04T05:11:11.073Z,11.12
2023-10-04T05:13:38.208Z,11.09
2023-10-04T05:16:08.746Z,11.04
2023-10-04T05:18:36.645Z,10.99
2023-10-04T05:21:05.850Z,10.92
2023-10-04T05:23:33.191Z,10.96
2023-10-04T05:26:01.480Z,11.00
2023-10-04T05:28:29.402Z,11.05
2023-10-04T05:30:56.989Z,11.13
2023-10-04T05:33:24.797Z,11.23
2023-10-04T05:35:56.716Z,11.35
2023-10-04T05:38:25.309Z,11.40
2023-10-04T05:40:53.051Z,11.44
2023-10-04T05:43:20.629Z,11.49
2023-10-04T05:45:49.524Z,11.51
2023-10-04T05:48:19.407Z,11.55
2023-10-04T05:50:46.642Z,11.59
2023-10-04T05:53:21.514Z,11.62
2023-10-04T05:55:52.497Z,11.76
2023-10-04T05:58:22.631Z,11.76
2023-10-04T06:00:57.559Z,11.76
2023-10-04T06:03:24.987Z,11.82
2023-10-04T06:05:54.737Z,11.89
2023-10-04T06:08:23.411Z,11.94
2023-10-04T06:10:54.967Z,12.05
2023-10-04T06:13:27.306Z,12.09
2023-10-04T06:15:57.285Z,12.12
2023-10-04T06:18:31.358Z,12.16
2023-10-04T06:21:01.214Z,12.27
2023-10-04T06:23:28.857Z,12.36
2023-10-04T06:25:56.825Z,12.42
2023-10-04T06:28:23.976Z,12.42
2023-10-04T06:30:51.813Z,12.37
2023-10-04T06:33:20.468Z,12.36
2023-10-04T06:35:48.056Z,12.31
2023-10-04T06:38:15.687Z,12.31
2023-10-04T06:40:44.565Z,12.31
2023-10-04T06:43:13.683Z,12.31
2023-10-04T06:45:41.495Z,12.34
2023-10-04T06:48:09.709Z,12.46
2023-10-04T06:50:40.663Z,12.55
2023-10-04T06:53:14.162Z,12.69
2023-10-04T06:55:43.440Z,12.85
2023-10-04T06:58:13.172Z,12.91
2023-10-04T07:00:43.331Z,13.05
2023-10-04T07:03:11.900Z,13.05
2023-10-04T07:05:42.569Z,13.05
2023-10-04T07:08:15.630Z,13.16
2023-10-04T07:10:47.106Z,13.30
2023-10-04T07:13:14.238Z,13.52
2023-10-04T07:15:42.040Z,13.68
2023-10-04T07:18:12.046Z,13.73
2023-10-04T07:20:41.252Z,13.75
2023-10-04T07:23:12.224Z,13.76
2023-10-04T07:25:48.769Z,14.28
2023-10-04T07:28:16.121Z,14.28
2023-10-04T07:30:43.401Z,14.73
2023-10-04T07:33:11.631Z,14.73
2023-10-04T07:35:39.151Z,14.66
2023-10-04T07:38:06.711Z,14.64
2023-10-04T07:40:34.844Z,14.60
2023-10-04T07:43:03.632Z,14.60
2023-10-04T07:45:33.355Z,14.50
2023-10-04T07:48:04.210Z,14.51
2023-10-04T07:50:33.180Z,14.46
2023-10-04T07:53:06.863Z,14.44
2023-10-04T07:55:35.679Z,14.46
2023-10-04T07:58:04.531Z,14.52
2023-10-04T08:00:34.766Z,14.52
2023-10-04T08:03:02.521Z,14.69
2023-10-04T08:05:33.012Z,14.69
2023-10-04T08:08:05.868Z,15.63
2023-10-04T08:10:37.220Z,16.59
2023-10-04T08:13:06.667Z,17.01
2023-10-04T08:15:40.236Z,16.95
2023-10-04T08:18:08.105Z,17.74
2023-10-04T08:20:38.399Z,19.51
2023-10-04T08:23:05.906Z,21.00
2023-10-04T08:25:37.294Z,22.00
2023-10-04T08:28:08.586Z,22.22
2023-10-04T08:30:35.631Z,22.64
2023-10-04T08:33:05.043Z,23.04
2023-10-04T08:35:37.763Z,22.59
2023-10-04T08:38:07.126Z,22.61
2023-10-04T08:40:43.066Z,22.47
2023-10-04T08:43:11.508Z,22.37
2023-10-04T08:45:39.128Z,21.95
2023-10-04T08:48:07.018Z,22.14
2023-10-04T08:51:16.372Z,23.13
2023-10-04T08:54:10.175Z,24.23
2023-10-04T08:56:50.398Z,24.91
2023-10-04T08:59:19.027Z,24.91
2023-10-04T09:01:49.040Z,24.75
2023-10-04T09:04:16.466Z,23.42
2023-10-04T09:06:46.724Z,24.45
2023-10-04T09:09:16.936Z,24.41
2023-10-04T09:11:44.102Z,23.90
2023-10-04T09:14:11.288Z,23.06
2023-10-04T09:16:38.565Z,22.43
2023-10-04T09:19:15.818Z,21.94
2023-10-04T09:21:43.204Z,21.87
2023-10-04T09:24:19.482Z,22.01
2023-10-04T09:26:56.457Z,21.67
2023-10-04T09:29:37.272Z,21.02
2023-10-04T09:32:07.013Z,20.18
2023-10-04T09:34:37.077Z,20.07
2023-10-04T09:37:20.433Z,20.09
2023-10-04T09:39:47.531Z,20.25
2023-10-04T09:42:16.015Z,20.46
2023-10-04T09:44:43.267Z,20.46
2023-10-04T09:47:10.742Z,20.07
2023-10-04T09:49:39.239Z,19.82
2023-10-04T09:52:14.287Z,20.03
2023-10-04T09:54:41.634Z,20.89
2023-10-04T09:57:14.354Z,20.65
2023-10-04T09:59:46.103Z,20.62
2023-10-04T10:02:17.093Z,20.45
2023-10-04T10:04:46.462Z,20.29
2023-10-04T10:07:21.709Z,20.47
2023-10-04T10:10:15.717Z,20.38
2023-10-04T10:12:46.788Z,20.26
2023-10-04T10:15:15.059Z,20.24
2023-10-04T10:17:44.902Z,20.07
2023-10-04T10:20:14.072Z,19.89
2023-10-04T10:23:01.737Z,19.65
2023-10-04T10:25:31.358Z,19.54
2023-10-04T10:28:00.485Z,19.69
2023-10-04T10:30:27.638Z,19.71
2023-10-04T10:33:00.691Z,19.85
2023-10-04T10:35:58.674Z,19.79
2023-10-04T10:38:45.229Z,19.77
2023-10-04T10:41:30.491Z,19.87
2023-10-04T10:44:16.561Z,19.89
2023-10-04T10:47:02.193Z,19.97
2023-10-04T10:49:38.215Z,20.03
2023-10-04T10:52:05.999Z,20.12
2023-10-04T10:54:33.591Z,20.12
2023-10-04T10:57:00.945Z,20.19
2023-10-04T10:59:28.171Z,20.12
2023-10-04T11:01:55.303Z,20.16
2023-10-04T11:04:22.431Z,20.20
2023-10-04T11:06:49.771Z,20.20
2023-10-04T11:09:24.891Z,20.27
2023-10-04T11:12:03.651Z,20.29
2023-10-04T11:14:31.674Z,20.38
2023-10-04T11:16:59.991Z,20.31
2023-10-04T11:19:27.407Z,20.48
2023-10-04T11:21:57.413Z,20.48
2023-10-04T11:24:24.859Z,20.51
2023-10-04T11:26:52.269Z,20.47
2023-10-04T11:29:19.707Z,20.63
2023-10-04T11:31:47.026Z,20.62
2023-10-04T11:34:14.294Z,20.67
2023-10-04T11:36:41.377Z,20.61
2023-10-04T11:39:11.682Z,20.63
2023-10-04T11:41:40.774Z,20.65
2023-10-04T11:44:09.528Z,20.85
2023-10-04T11:47:00.999Z,20.98
2023-10-04T11:49:30.271Z,20.93
2023-10-04T11:52:06.900Z,21.00
2023-10-04T11:54:48.339Z,21.08
2023-10-04T11:57:39.523Z,21.01
2023-10-04T12:00:21.156Z,21.08
2023-10-04T12:02:48.595Z,21.04
2023-10-04T12:05:15.819Z,20.80
2023-10-04T12:07:43.067Z,20.81
2023-10-04T12:10:11.269Z,20.78
2023-10-04T12:12:38.731Z,20.86
2023-10-04T12:15:09.307Z,20.99
2023-10-04T12:17:38.080Z,21.08
2023-10-04T12:20:06.580Z,21.10
2023-10-04T12:22:33.823Z,21.24
2023-10-04T12:25:06.398Z,21.19
2023-10-04T12:27:33.423Z,21.29
2023-10-04T12:30:00.680Z,21.29
2023-10-04T12:32:27.751Z,21.19
2023-10-04T12:34:54.809Z,21.06
2023-10-04T12:37:21.934Z,21.12
2023-10-04T12:39:49.518Z,21.23
2023-10-04T12:42:17.382Z,21.54
2023-10-04T12:44:44.733Z,21.59
2023-10-04T12:47:14.557Z,21.17
2023-10-04T12:49:41.952Z,21.26
2023-10-04T12:52:09.102Z,21.17
2023-10-04T12:54:36.263Z,21.09
2023-10-04T12:57:03.828Z,21.20
2023-10-04T12:59:30.963Z,21.32
2023-10-04T13:01:59.051Z,21.32
2023-10-04T13:04:26.373Z,20.99
2023-10-04T13:06:53.598Z,20.96
2023-10-04T13:09:21.156Z,20.90
2023-10-04T13:11:49.046Z,20.85
2023-10-04T13:14:16.738Z,20.80
2023-10-04T13:16:44.643Z,20.80
2023-10-04T13:19:12.445Z,20.55
2023-10-04T13:21:39.717Z,20.45
2023-10-04T13:24:07.218Z,20.45
2023-10-04T13:26:35.380Z,20.28
2023-10-04T13:29:02.589Z,20.01
2023-10-04T13:31:30.420Z,19.93
2023-10-04T13:33:58.761Z,19.67
2023-10-04T13:36:26.015Z,19.96
2023-10-04T13:38:54.718Z,20.26
2023-10-04T13:41:22.655Z,20.30
2023-10-04T13:43:50.229Z,20.30
2023-10-04T13:46:17.391Z,20.23
2023-10-04T13:48:45.732Z,20.16
2023-10-04T13:51:20.913Z,20.16
2023-10-04T13:53:47.971Z,19.98
2023-10-04T13:56:15.069Z,19.98
2023-10-04T13:58:42.141Z,20.03
2023-10-04T14:01:09.946Z,20.04
2023-10-04T14:03:38.546Z,20.32
2023-10-04T14:06:12.270Z,20.45
2023-10-04T14:08:43.211Z,20.45
2023-10-04T14:11:10.843Z,20.22
2023-10-04T14:13:39.903Z,20.01
2023-10-04T14:16:09.289Z,19.84
2023-10-04T14:18:36.856Z,19.84
2023-10-04T14:21:06.193Z,19.75
2023-10-04T14:23:34.502Z,19.72
2023-10-04T14:26:01.576Z,19.61
2023-10-04T14:28:29.156Z,19.41
2023-10-04T14:30:58.789Z,19.31
2023-10-04T14:33:26.213Z,19.31
2023-10-04T14:35:55.345Z,19.24
2023-10-04T14:38:23.464Z,19.32
2023-10-04T14:41:00.061Z,19.34
2023-10-04T14:43:30.283Z,19.36
2023-10-04T14:45:58.562Z,19.39
2023-10-04T14:48:26.122Z,19.47
2023-10-04T14:53:26.768Z,19.41
2023-10-04T14:56:02.350Z,19.35
2023-10-04T14:58:31.704Z,19.22
2023-10-04T15:00:59.105Z,19.22
2023-10-04T15:03:28.580Z,19.04
2023-10-04T15:05:56.993Z,19.00
2023-10-04T15:08:24.423Z,18.89
2023-10-04T15:10:52.385Z,18.81
2023-10-04T15:13:19.522Z,18.81
2023-10-04T15:15:58.352Z,18.61
2023-10-04T15:18:37.847Z,18.56
2023-10-04T15:21:07.958Z,18.46
2023-10-04T15:23:40.190Z,18.32
2023-10-04T15:26:11.724Z,18.23
2023-10-04T15:28:45.528Z,18.08
2023-10-04T15:31:15.302Z,18.02
2023-10-04T15:33:42.948Z,17.95
2023-10-04T15:36:10.720Z,17.86
2023-10-04T15:38:38.417Z,17.78
2023-10-04T15:41:06.335Z,17.70
2023-10-04T15:43:33.451Z,17.57
2023-10-04T15:46:00.669Z,17.50
2023-10-04T15:48:27.937Z,17.42
2023-10-04T15:50:55.037Z,17.34
2023-10-04T15:53:22.604Z,17.30
2023-10-04T15:55:49.669Z,17.32
2023-10-04T15:58:16.935Z,17.32
2023-10-04T16:00:45.021Z,17.26
2023-10-04T16:03:12.238Z,17.21
2023-10-04T16:05:39.493Z,17.17
2023-10-04T16:08:09.027Z,17.16
2023-10-04T16:10:36.227Z,17.13
2023-10-04T16:13:05.584Z,17.09
2023-10-04T16:15:34.697Z,17.04
2023-10-04T16:18:01.918Z,16.93
2023-10-04T16:20:29.146Z,16.87
2023-10-04T16:22:58.460Z,16.81
2023-10-04T16:25:26.345Z,16.73
2023-10-04T16:27:53.604Z,16.60
2023-10-04T16:30:22.680Z,16.47
2023-10-04T16:32:50.672Z,16.37
2023-10-04T16:35:21.879Z,16.25
2023-10-04T16:37:52.805Z,16.16
2023-10-04T16:40:21.441Z,16.16
2023-10-04T16:42:51.547Z,15.98
2023-10-04T16:45:21.854Z,15.75
2023-10-04T16:47:50.597Z,15.75
2023-10-04T16:50:20.638Z,15.60
2023-10-04T16:52:53.693Z,15.50
2023-10-04T16:55:20.994Z,15.39
2023-10-04T16:57:48.207Z,15.23
2023-10-04T17:00:18.732Z,15.11
2023-10-04T17:02:46.735Z,15.02
2023-10-04T17:05:16.201Z,14.92
2023-10-04T17:07:44.596Z,14.80
2023-10-04T17:10:14.062Z,14.84
2023-10-04T17:12:45.206Z,14.86
2023-10-04T17:15:13.517Z,14.78
2023-10-04T17:17:43.311Z,14.68
2023-10-04T17:20:11.543Z,14.59
2023-10-04T17:22:38.715Z,14.53
2023-10-04T17:25:07.425Z,14.52
2023-10-04T17:27:34.635Z,14.52
2023-10-04T17:30:05.308Z,14.52
2023-10-04T17:32:32.410Z,14.43
2023-10-04T17:35:01.786Z,14.35
2023-10-04T17:37:28.859Z,14.28
2023-10-04T17:39:55.917Z,14.17
2023-10-04T17:42:23.127Z,14.17
2023-10-04T17:44:50.510Z,14.09
2023-10-04T17:47:17.546Z,14.10
2023-10-04T17:49:48.518Z,14.07
2023-10-04T17:52:15.886Z,14.00
2023-10-04T17:54:43.046Z,13.88
2023-10-04T17:57:10.301Z,13.88
2023-10-04T17:59:38.275Z,13.74
2023-10-04T18:02:07.379Z,13.70
2023-10-04T18:04:34.560Z,13.70
2023-10-04T18:07:01.893Z,13.53
2023-10-04T18:09:29.063Z,13.53
2023-10-04T18:11:56.124Z,13.42
2023-10-04T18:14:23.236Z,13.34
2023-10-04T18:16:50.326Z,13.29
2023-10-04T18:19:18.172Z,13.32
2023-10-04T18:21:45.700Z,13.33
2023-10-04T18:24:12.914Z,13.27
2023-10-04T18:26:40.334Z,13.26
2023-10-04T18:29:07.550Z,13.26
2023-10-04T18:31:36.748Z,13.16
2023-10-04T18:34:07.191Z,13.12
2023-10-04T18:36:34.589Z,13.09
2023-10-04T18:39:10.831Z,13.04
2023-10-04T18:41:38.183Z,13.00
2023-10-04T18:44:06.921Z,12.97
2023-10-04T18:46:34.267Z,12.95
2023-10-04T18:49:01.648Z,12.92
2023-10-04T18:51:28.788Z,12.90
2023-10-04T18:53:56.092Z,12.86
2023-10-04T18:56:25.934Z,12.83
2023-10-04T18:58:53.061Z,12.80
2023-10-04T19:01:20.778Z,12.71
2023-10-04T19:03:48.950Z,12.68
2023-10-04T19:06:16.915Z,12.65
2023-10-04T19:08:43.971Z,12.65
2023-10-04T19:11:12.773Z,12.61
2023-10-04T19:13:40.009Z,12.55
2023-10-04T19:16:07.946Z,12.48
2023-10-04T19:18:36.401Z,12.44
2023-10-04T19:21:03.756Z,12.37
2023-10-04T19:23:31.076Z,12.33
2023-10-04T19:25:58.150Z,12.30
2023-10-04T19:28:27.762Z,12.24
2023-10-04T19:31:00.168Z,12.21
2023-10-04T19:33:29.276Z,12.17
2023-10-04T19:35:58.702Z,12.13
2023-10-04T19:38:28.496Z,12.19
2023-10-04T19:40:55.721Z,12.19
2023-10-04T19:43:22.815Z,12.09
2023-10-04T19:45:50.332Z,12.04
2023-10-04T19:48:17.451Z,11.99
2023-10-04T19:50:45.806Z,11.95
2023-10-04T19:53:15.630Z,11.90
2023-10-04T19:55:43.026Z,11.81
2023-10-04T19:58:14.944Z,11.81
2023-10-04T20:00:44.674Z,11.81
2023-10-04T20:03:13.162Z,11.88
2023-10-04T20:05:40.735Z,11.88
2023-10-04T20:08:08.656Z,11.80
2023-10-04T20:10:38.424Z,11.76
2023-10-04T20:13:09.015Z,11.63
2023-10-04T20:15:42.756Z,11.63
2023-10-04T20:18:10.602Z,11.51
2023-10-04T20:20:39.619Z,11.45
2023-10-04T20:23:08.522Z,11.42
2023-10-04T20:25:38.507Z,11.42
2023-10-04T20:28:06.276Z,11.43
2023-10-04T20:30:33.817Z,11.43
2023-10-04T20:33:01.754Z,11.34
2023-10-04T20:35:31.012Z,11.26
2023-10-04T20:37:58.640Z,11.26
2023-10-04T20:40:27.220Z,11.17
2023-10-04T20:42:54.451Z,11.12
2023-10-04T20:45:21.616Z,11.05
2023-10-04T20:47:49.491Z,11.00
2023-10-04T20:50:17.344Z,10.95
2023-10-04T20:52:45.705Z,10.93
2023-10-04T20:55:13.980Z,10.88
2023-10-04T20:57:41.840Z,10.86
2023-10-04T21:00:11.466Z,10.83
2023-10-04T21:02:40.597Z,10.79
2023-10-04T21:05:13.837Z,10.76
2023-10-04T21:07:41.962Z,10.75
2023-10-04T21:10:11.990Z,10.73
2023-10-04T21:12:39.413Z,10.69
2023-10-04T21:15:07.355Z,10.67
2023-10-04T21:17:34.403Z,10.66
2023-10-04T21:20:01.543Z,10.63
2023-10-04T21:22:28.694Z,10.64
2023-10-04T21:24:56.405Z,10.64
2023-10-04T21:27:26.479Z,10.56
2023-10-04T21:29:57.195Z,10.54
2023-10-04T21:32:30.048Z,10.51
2023-10-04T21:34:58.105Z,10.47
2023-10-04T21:37:29.315Z,10.44
2023-10-04T21:39:57.169Z,10.42
2023-10-04T21:42:25.528Z,10.43
2023-10-04T21:44:53.048Z,10.41
2023-10-04T21:47:29.195Z,10.37
2023-10-04T21:49:59.763Z,10.37
2023-10-04T21:52:32.909Z,10.35
2023-10-04T21:55:02.809Z,10.31
2023-10-04T21:57:31.781Z,10.34
2023-10-04T22:00:01.019Z,10.34
2023-10-04T22:02:30.833Z,10.28
2023-10-04T22:04:58.889Z,10.26
2023-10-04T22:07:27.656Z,10.25
2023-10-04T22:09:54.779Z,10.22
2023-10-04T22:12:23.183Z,10.16
2023-10-04T22:14:51.610Z,10.16
2023-10-04T22:17:19.072Z,10.17
2023-10-04T22:19:46.522Z,10.17
2023-10-04T22:22:14.261Z,10.16
2023-10-04T22:24:59.250Z,10.17
2023-10-04T22:27:30.154Z,10.19
2023-10-04T22:29:58.695Z,10.17
2023-10-04T22:32:27.455Z,10.13
2023-10-04T22:34:54.733Z,10.11
2023-10-04T22:37:22.474Z,10.09
2023-10-04T22:39:54.458Z,10.06
2023-10-04T22:42:23.126Z,9.99
2023-10-04T22:44:52.697Z,9.99
2023-10-04T22:47:20.710Z,9.90
2023-10-04T22:49:47.810Z,9.83
2023-10-04T22:52:14.992Z,9.85
2023-10-04T22:54:45.032Z,9.85
2023-10-04T22:57:13.247Z,9.75
2023-10-04T22:59:40.509Z,9.73
2023-10-04T23:02:08.524Z,9.73
2023-10-04T23:04:35.751Z,9.68
2023-10-04T23:07:03.029Z,9.67
2023-10-04T23:09:32.564Z,9.66
2023-10-04T23:12:00.137Z,9.73
2023-10-04T23:14:27.153Z,9.73
2023-10-04T23:16:59.317Z,9.73
2023-10-04T23:19:29.648Z,9.65
2023-10-04T23:22:04.510Z,9.65
2023-10-04T23:24:34.655Z,9.68
2023-10-04T23:27:01.800Z,9.65
2023-10-04T23:29:31.661Z,9.68
2023-10-04T23:32:01.500Z,9.63
2023-10-04T23:34:34.024Z,9.58
2023-10-04T23:37:01.643Z,9.58
2023-10-04T23:39:31.910Z,9.58
2023-10-04T23:42:01.420Z,9.52
2023-10-04T23:44:28.516Z,9.49
2023-10-04T23:46:59.541Z,9.50
2023-10-04T23:49:26.833Z,9.48
2023-10-04T23:51:54.884Z,9.48
2023-10-04T23:54:23.322Z,9.53
2023-10-04T23:56:56.262Z,9.53
2023-10-04T23:59:25.829Z,9.42
